Time;durP1;ratioP1;P1;durP2;ratioP2;P2;SDS_P1;SDS_P2;PMS_P1;PMS_P2;Temp;Humidity;BMP_temperature;BMP_pressure;BME280_temperature;BME280_humidity;BME280_pressure;Samples;Min_cycle;Max_cycle;Signal;HPM_P1;HPM_P2
2023/01/22 00:00:44;;;;;;;28.50;18.55;;;;;;;;;;6314555;22;20013;-90
2023/01/22 00:03:10;;;;;;;24.88;18.02;;;;;;;;;;6314202;22;20003;-89
2023/01/22 00:08:40;;;;;;;28.83;20.52;;;;;;;;;;6313708;22;20026;-90
2023/01/22 00:11:06;;;;;;;28.58;18.52;;;;;;;;;;6313780;22;20362;-90
2023/01/22 00:13:33;;;;;;;27.42;19.17;;;;;;;;;;6286228;22;20098;-90
2023/01/22 00:15:59;;;;;;;29.35;18.60;;;;;;;;;;6313994;22;19996;-91
2023/01/22 00:18:26;;;;;;;27.27;18.85;;;;;;;;;;6286900;22;20026;-91
2023/01/22 00:20:52;;;;;;;25.65;17.95;;;;;;;;;;6313634;22;20358;-91
2023/01/22 00:23:19;;;;;;;28.73;20.55;;;;;;;;;;6313970;22;20297;-91
2023/01/22 00:25:45;;;;;;;28.17;20.20;;;;;;;;;;6313982;22;20025;-89
2023/01/22 00:28:12;;;;;;;28.33;19.65;;;;;;;;;;6313811;22;20013;-89
2023/01/22 00:30:39;;;;;;;25.92;19.33;;;;;;;;;;6286597;22;20094;-89
2023/01/22 00:33:05;;;;;;;24.42;18.15;;;;;;;;;;6286582;22;20011;-89
2023/01/22 00:35:41;;;;;;;24.25;17.15;;;;;;;;;;6313690;22;20041;-90
2023/01/22 00:38:07;;;;;;;27.17;18.23;;;;;;;;;;6313619;22;20045;-90
2023/01/22 00:40:33;;;;;;;31.88;19.40;;;;;;;;;;6286654;22;20045;-89
2023/01/22 00:42:59;;;;;;;27.20;19.75;;;;;;;;;;6313525;22;20022;-90
2023/01/22 00:45:25;;;;;;;29.88;20.02;;;;;;;;;;6313959;22;20354;-88
2023/01/22 00:47:51;;;;;;;25.95;19.30;;;;;;;;;;6286161;22;20062;-89
2023/01/22 00:50:17;;;;;;;23.25;17.90;;;;;;;;;;6286220;22;20301;-89
2023/01/22 00:52:43;;;;;;;27.23;18.38;;;;;;;;;;6313811;22;19999;-89
2023/01/22 00:55:10;;;;;;;27.17;18.15;;;;;;;;;;6313575;22;20007;-90
2023/01/22 00:57:36;;;;;;;27.92;18.05;;;;;;;;;;6286639;22;19996;-90
2023/01/22 01:00:02;;;;;;;25.13;17.98;;;;;;;;;;6286448;22;20011;-90
2023/01/22 01:02:28;;;;;;;27.27;18.77;;;;;;;;;;6286465;22;20041;-90
2023/01/22 01:04:55;;;;;;;27.65;18.77;;;;;;;;;;6286439;22;20298;-90
2023/01/22 01:07:53;;;;;;;24.27;17.90;;;;;;;;;;6313188;22;20003;-90
2023/01/22 01:10:19;;;;;;;27.25;18.13;;;;;;;;;;6285537;22;20361;-91
2023/01/22 01:12:46;;;;;;;24.55;18.10;;;;;;;;;;6285960;22;20094;-91
2023/01/22 01:15:12;;;;;;;23.88;18.27;;;;;;;;;;6286598;22;20022;-90
2023/01/22 01:17:38;;;;;;;25.25;18.05;;;;;;;;;;6313231;22;20006;-90
2023/01/22 01:20:04;;;;;;;24.50;18.15;;;;;;;;;;6313448;22;20011;-90
2023/01/22 01:22:30;;;;;;;26.20;17.77;;;;;;;;;;6286267;22;20003;-90
2023/01/22 01:24:56;;;;;;;22.30;16.15;;;;;;;;;;6313430;22;20010;-90
2023/01/22 01:27:22;;;;;;;26.33;17.75;;;;;;;;;;6313429;22;20003;-90
2023/01/22 01:29:48;;;;;;;22.60;17.83;;;;;;;;;;6286119;22;20014;-91
2023/01/22 01:32:14;;;;;;;24.92;17.45;;;;;;;;;;6313612;22;20068;-91
2023/01/22 01:34:40;;;;;;;24.58;17.42;;;;;;;;;;6313549;22;19991;-90
2023/01/22 01:37:06;;;;;;;23.80;17.38;;;;;;;;;;6313454;22;20004;-90
2023/01/22 01:39:32;;;;;;;22.13;16.25;;;;;;;;;;6285453;22;20007;-90
2023/01/22 01:41:58;;;;;;;21.92;15.95;;;;;;;;;;6285929;22;20000;-90
2023/01/22 01:44:26;;;;;;;21.38;15.45;;;;;;;;;;6286219;22;20259;-90
2023/01/22 01:46:59;;;;;;;21.33;15.27;;;;;;;;;;6285863;22;20038;-90
2023/01/22 01:49:29;;;;;;;20.48;15.40;;;;;;;;;;6312863;22;20019;-90
2023/01/22 01:55:08;;;;;;;22.42;15.18;;;;;;;;;;6313079;22;20081;-91
2023/01/22 01:57:34;;;;;;;21.05;15.27;;;;;;;;;;6313263;22;20074;-90
2023/01/22 02:00:04;;;;;;;21.63;15.77;;;;;;;;;;6285991;22;20000;-89
2023/01/22 02:02:30;;;;;;;27.63;17.92;;;;;;;;;;6285789;22;20125;-91
2023/01/22 02:04:56;;;;;;;24.13;17.17;;;;;;;;;;6312958;22;20004;-90
2023/01/22 02:10:44;;;;;;;27.20;18.15;;;;;;;;;;6313074;22;20048;-90
2023/01/22 02:13:12;;;;;;;29.95;19.00;;;;;;;;;;6312831;22;20003;-90
2023/01/22 02:15:39;;;;;;;29.77;18.00;;;;;;;;;;6312246;22;20041;-89
2023/01/22 02:18:05;;;;;;;30.55;20.08;;;;;;;;;;6313635;22;20030;-91
2023/01/22 02:20:36;;;;;;;28.65;18.67;;;;;;;;;;6314944;22;20112;-91
2023/01/22 02:26:06;;;;;;;24.80;17.40;;;;;;;;;;6314845;22;19997;-91
2023/01/22 02:28:32;;;;;;;24.15;17.48;;;;;;;;;;6288029;22;20003;-90
2023/01/22 02:30:58;;;;;;;22.70;17.95;;;;;;;;;;6315028;22;20003;-87
2023/01/22 02:33:24;;;;;;;23.23;18.08;;;;;;;;;;6287935;22;20013;-90
2023/01/22 02:35:50;;;;;;;23.10;17.27;;;;;;;;;;6314655;22;20000;-91
2023/01/22 02:38:16;;;;;;;24.50;18.08;;;;;;;;;;6314707;22;20004;-90
2023/01/22 02:40:47;;;;;;;21.58;16.95;;;;;;;;;;6314606;22;20004;-89
2023/01/22 02:43:14;;;;;;;21.63;16.50;;;;;;;;;;6315137;22;20003;-90
2023/01/22 02:45:40;;;;;;;22.70;16.27;;;;;;;;;;6287454;22;20053;-91
2023/01/22 02:48:06;;;;;;;23.38;16.83;;;;;;;;;;6315003;22;20007;-91
2023/01/22 02:50:32;;;;;;;24.23;17.15;;;;;;;;;;6287609;22;20017;-90
2023/01/22 02:52:58;;;;;;;28.33;18.55;;;;;;;;;;6287682;22;20007;-90
2023/01/22 02:55:24;;;;;;;32.22;17.92;;;;;;;;;;6287174;22;20007;-90
2023/01/22 02:57:50;;;;;;;23.38;16.35;;;;;;;;;;6288065;22;20006;-91
2023/01/22 03:00:16;;;;;;;21.60;15.55;;;;;;;;;;6314442;22;20003;-91
2023/01/22 03:02:42;;;;;;;21.83;15.57;;;;;;;;;;6314941;22;20254;-90
2023/01/22 03:05:08;;;;;;;26.52;19.13;;;;;;;;;;6315056;22;20243;-91
2023/01/22 03:10:57;;;;;;;26.40;19.50;;;;;;;;;;6314533;22;20432;-90
2023/01/22 03:21:55;;;;;;;60.10;35.92;;;;;;;;;;6314524;22;20022;-91
2023/01/22 03:24:21;;;;;;;69.20;34.78;;;;;;;;;;6287452;22;20014;-92
2023/01/22 03:26:47;;;;;;;80.43;39.70;;;;;;;;;;6314585;22;20003;-90
2023/01/22 03:29:13;;;;;;;49.00;28.67;;;;;;;;;;6314301;22;20003;-90
2023/01/22 03:31:39;;;;;;;33.55;21.83;;;;;;;;;;6287559;22;20044;-90
2023/01/22 03:34:05;;;;;;;34.17;21.60;;;;;;;;;;6287438;22;19999;-91
2023/01/22 03:42:42;;;;;;;36.78;22.90;;;;;;;;;;6314130;22;20006;-90
2023/01/22 03:45:08;;;;;;;50.13;31.13;;;;;;;;;;6314415;22;19999;-92
2023/01/22 03:47:35;;;;;;;45.25;27.38;;;;;;;;;;6286901;22;20266;-91
2023/01/22 03:50:02;;;;;;;48.00;28.52;;;;;;;;;;6313839;22;20011;-91
2023/01/22 03:52:28;;;;;;;45.63;26.58;;;;;;;;;;6287364;22;20042;-90
2023/01/22 03:54:54;;;;;;;44.38;24.73;;;;;;;;;;6287124;22;20003;-92
2023/01/22 03:57:20;;;;;;;37.25;20.63;;;;;;;;;;6287056;22;20011;-91
2023/01/22 03:59:46;;;;;;;37.13;22.63;;;;;;;;;;6287076;22;20004;-91
2023/01/22 04:02:12;;;;;;;36.72;24.67;;;;;;;;;;6286893;22;20000;-91
2023/01/22 04:04:38;;;;;;;30.75;22.88;;;;;;;;;;6313820;22;20001;-91
2023/01/22 04:07:41;;;;;;;30.17;21.95;;;;;;;;;;6313884;22;20008;-90
2023/01/22 04:10:08;;;;;;;27.55;17.83;;;;;;;;;;6313773;22;20281;-90
2023/01/22 04:12:34;;;;;;;29.83;20.35;;;;;;;;;;6287005;22;19999;-91
2023/01/22 04:15:00;;;;;;;30.30;20.58;;;;;;;;;;6314142;22;20006;-91
2023/01/22 04:17:26;;;;;;;28.80;19.55;;;;;;;;;;6314066;22;19995;-91
2023/01/22 04:19:52;;;;;;;31.67;20.08;;;;;;;;;;6313615;22;20370;-91
2023/01/22 04:22:18;;;;;;;27.10;19.33;;;;;;;;;;6314146;22;20250;-92
2023/01/22 04:24:44;;;;;;;25.80;18.85;;;;;;;;;;6313423;22;20457;-90
2023/01/22 04:27:10;;;;;;;26.23;19.27;;;;;;;;;;6286944;22;20289;-91
2023/01/22 04:29:36;;;;;;;31.85;20.42;;;;;;;;;;6286662;22;19999;-91
2023/01/22 04:32:02;;;;;;;30.33;20.02;;;;;;;;;;6286590;22;20053;-92
2023/01/22 04:34:28;;;;;;;30.70;20.50;;;;;;;;;;6313646;22;19999;-90
2023/01/22 04:36:54;;;;;;;49.15;28.10;;;;;;;;;;6313244;22;19995;-92
2023/01/22 04:39:20;;;;;;;60.22;34.95;;;;;;;;;;6314070;22;20003;-92
2023/01/22 04:41:46;;;;;;;39.33;24.10;;;;;;;;;;6286167;22;20263;-91
2023/01/22 04:44:12;;;;;;;36.30;23.35;;;;;;;;;;6313125;22;19999;-91
2023/01/22 04:46:38;;;;;;;31.30;20.55;;;;;;;;;;6286683;22;20385;-91
2023/01/22 04:49:04;;;;;;;25.80;18.33;;;;;;;;;;6313294;22;20397;-92
2023/01/22 04:51:30;;;;;;;26.73;17.90;;;;;;;;;;6286349;22;20262;-91
2023/01/22 04:53:56;;;;;;;27.98;17.88;;;;;;;;;;6313745;22;19999;-92
2023/01/22 04:56:22;;;;;;;26.48;17.25;;;;;;;;;;6286418;22;20326;-93
2023/01/22 04:58:48;;;;;;;23.25;17.08;;;;;;;;;;6286661;22;20060;-90
2023/01/22 05:01:14;;;;;;;27.17;17.33;;;;;;;;;;6313372;22;20074;-92
2023/01/22 05:03:41;;;;;;;25.17;18.23;;;;;;;;;;6286448;22;20007;-91
2023/01/22 05:06:07;;;;;;;23.40;16.63;;;;;;;;;;6286508;22;19999;-91
2023/01/22 05:11:50;;;;;;;23.48;17.55;;;;;;;;;;6313248;22;20018;-91
2023/01/22 05:14:16;;;;;;;44.42;23.90;;;;;;;;;;6286270;22;20007;-90
2023/01/22 05:16:42;;;;;;;51.95;26.92;;;;;;;;;;6313888;22;19999;-90
2023/01/22 05:19:08;;;;;;;42.08;27.98;;;;;;;;;;6286099;22;20003;-90
2023/01/22 05:21:34;;;;;;;39.85;26.48;;;;;;;;;;6313113;22;20011;-90
2023/01/22 05:24:00;;;;;;;35.15;21.08;;;;;;;;;;6286002;22;20004;-90
2023/01/22 05:26:27;;;;;;;31.23;20.85;;;;;;;;;;6286118;22;20042;-91
2023/01/22 05:28:53;;;;;;;38.80;22.70;;;;;;;;;;6313457;22;20008;-91
2023/01/22 05:31:19;;;;;;;66.03;27.63;;;;;;;;;;6285725;22;20007;-92
2023/01/22 05:33:45;;;;;;;81.10;27.98;;;;;;;;;;6313158;22;20362;-92
2023/01/22 05:36:11;;;;;;;88.38;31.83;;;;;;;;;;6313485;22;19995;-93
2023/01/22 05:38:38;;;;;;;72.35;30.48;;;;;;;;;;6313186;22;20118;-91
2023/01/22 05:41:04;;;;;;;72.28;28.13;;;;;;;;;;6286094;22;20003;-91
2023/01/22 05:43:30;;;;;;;44.40;24.45;;;;;;;;;;6313439;22;19999;-92
2023/01/22 05:46:00;;;;;;;39.45;25.00;;;;;;;;;;6285965;22;20018;-92
2023/01/22 05:48:26;;;;;;;41.53;26.50;;;;;;;;;;6312702;22;20315;-90
2023/01/22 05:50:52;;;;;;;47.65;27.42;;;;;;;;;;6312760;22;20030;-91
2023/01/22 05:53:18;;;;;;;54.58;26.52;;;;;;;;;;6313040;22;20250;-92
2023/01/22 05:55:44;;;;;;;75.47;30.75;;;;;;;;;;6313208;22;20004;-91
2023/01/22 05:58:10;;;;;;;43.20;24.83;;;;;;;;;;6286116;22;20030;-92
2023/01/22 06:00:36;;;;;;;39.58;23.38;;;;;;;;;;6285565;22;20007;-90
2023/01/22 06:03:02;;;;;;;35.85;23.08;;;;;;;;;;6313330;22;19999;-90
2023/01/22 06:05:28;;;;;;;33.75;21.77;;;;;;;;;;6313334;22;20082;-91
2023/01/22 06:07:54;;;;;;;38.17;22.85;;;;;;;;;;6313320;22;20003;-91
2023/01/22 06:10:20;;;;;;;34.95;24.08;;;;;;;;;;6285910;22;20013;-91
2023/01/22 06:12:46;;;;;;;49.72;28.52;;;;;;;;;;6286076;22;20000;-92
2023/01/22 06:15:13;;;;;;;94.90;43.28;;;;;;;;;;6313341;22;20043;-92
2023/01/22 06:17:39;;;;;;;123.43;51.45;;;;;;;;;;6285789;22;20003;-92
2023/01/22 06:20:05;;;;;;;116.03;50.38;;;;;;;;;;6313225;22;20007;-92
2023/01/22 06:22:31;;;;;;;119.85;50.40;;;;;;;;;;6312737;22;19999;-92
2023/01/22 06:24:57;;;;;;;103.30;46.22;;;;;;;;;;6312780;22;20384;-91
2023/01/22 06:27:23;;;;;;;109.05;48.97;;;;;;;;;;6312792;22;20354;-91
2023/01/22 06:29:49;;;;;;;104.05;45.97;;;;;;;;;;6285971;22;20004;-92
2023/01/22 06:32:15;;;;;;;101.35;43.50;;;;;;;;;;6312779;22;20003;-92
2023/01/22 06:34:41;;;;;;;92.40;41.78;;;;;;;;;;6313165;22;20003;-92
2023/01/22 06:37:07;;;;;;;99.05;42.47;;;;;;;;;;6285762;22;20003;-92
2023/01/22 06:39:33;;;;;;;121.15;48.10;;;;;;;;;;6285959;22;20007;-93
2023/01/22 06:41:59;;;;;;;107.47;43.88;;;;;;;;;;6313121;22;20074;-93
2023/01/22 06:44:25;;;;;;;113.80;44.90;;;;;;;;;;6312978;22;19995;-93
2023/01/22 06:46:52;;;;;;;96.68;41.40;;;;;;;;;;6285692;22;19999;-92
2023/01/22 06:49:18;;;;;;;87.03;38.42;;;;;;;;;;6285844;22;20016;-93
2023/01/22 06:51:44;;;;;;;92.22;39.42;;;;;;;;;;6313087;22;19999;-93
2023/01/22 06:54:11;;;;;;;85.40;39.17;;;;;;;;;;6285835;22;20000;-92
2023/01/22 06:56:37;;;;;;;84.28;38.20;;;;;;;;;;6285382;22;20003;-92
2023/01/22 06:59:03;;;;;;;85.57;40.33;;;;;;;;;;6312530;22;20415;-93
2023/01/22 07:01:29;;;;;;;86.47;41.55;;;;;;;;;;6285697;22;20007;-93
2023/01/22 07:03:55;;;;;;;88.05;39.67;;;;;;;;;;6313014;22;20003;-92
2023/01/22 07:06:22;;;;;;;85.57;37.85;;;;;;;;;;6286994;22;19999;-93
2023/01/22 07:09:25;;;;;;;92.55;41.10;;;;;;;;;;6314347;22;20003;-92
2023/01/22 07:11:51;;;;;;;85.55;38.58;;;;;;;;;;6287186;22;20062;-94
2023/01/22 07:14:17;;;;;;;80.85;35.60;;;;;;;;;;6287544;22;20006;-94
2023/01/22 07:16:43;;;;;;;81.93;36.17;;;;;;;;;;6287467;22;20052;-95
2023/01/22 07:19:09;;;;;;;77.07;36.35;;;;;;;;;;6314366;22;20010;-94
2023/01/22 07:21:35;;;;;;;73.03;35.67;;;;;;;;;;6314573;22;20091;-94
2023/01/22 07:27:05;;;;;;;66.95;32.38;;;;;;;;;;6314001;22;20007;-96
2023/01/22 07:29:32;;;;;;;66.40;31.40;;;;;;;;;;6314257;22;20031;-94
2023/01/22 07:31:58;;;;;;;65.45;31.60;;;;;;;;;;6314430;22;20023;-95
2023/01/22 07:34:24;;;;;;;67.25;31.38;;;;;;;;;;6314262;22;20003;-95
2023/01/22 07:36:50;;;;;;;63.88;32.08;;;;;;;;;;6313885;22;20003;-94
2023/01/22 07:39:16;;;;;;;64.70;34.58;;;;;;;;;;6286557;22;20000;-93
2023/01/22 07:41:42;;;;;;;73.75;37.95;;;;;;;;;;6314165;22;20003;-95
2023/01/22 07:44:08;;;;;;;70.78;33.63;;;;;;;;;;6314019;22;20000;-95
2023/01/22 07:46:35;;;;;;;74.50;35.47;;;;;;;;;;6287500;22;20042;-95
2023/01/22 07:49:01;;;;;;;66.82;33.95;;;;;;;;;;6287148;22;20037;-95
2023/01/22 07:51:27;;;;;;;65.95;33.22;;;;;;;;;;6313753;22;20086;-95
2023/01/22 07:53:54;;;;;;;71.70;35.22;;;;;;;;;;6288199;22;20010;-95
2023/01/22 07:56:20;;;;;;;70.10;34.88;;;;;;;;;;6289928;22;20003;-94
2023/01/22 07:58:46;;;;;;;71.53;37.25;;;;;;;;;;6318820;22;20018;-92
2023/01/22 08:01:13;;;;;;;72.00;36.03;;;;;;;;;;6289509;22;20011;-95
2023/01/22 08:03:39;;;;;;;71.97;35.05;;;;;;;;;;6318750;22;20023;-95
2023/01/22 08:06:10;;;;;;;73.95;34.85;;;;;;;;;;6318522;22;20034;-95
2023/01/22 08:11:40;;;;;;;63.55;30.50;;;;;;;;;;6313664;22;20373;-95
2023/01/22 08:14:06;;;;;;;66.15;34.60;;;;;;;;;;6314200;22;20057;-95
2023/01/22 08:16:32;;;;;;;65.10;33.50;;;;;;;;;;6314106;22;19995;-94
2023/01/22 08:18:58;;;;;;;53.78;29.08;;;;;;;;;;6314184;22;20004;-94
2023/01/22 08:21:24;;;;;;;49.40;26.90;;;;;;;;;;6286985;22;20011;-94
2023/01/22 08:23:50;;;;;;;105.85;54.20;;;;;;;;;;6286792;22;20003;-94
2023/01/22 08:26:16;;;;;;;121.20;60.53;;;;;;;;;;6286820;22;20022;-93
2023/01/22 08:28:42;;;;;;;93.05;47.75;;;;;;;;;;6314367;22;20003;-95
2023/01/22 08:31:09;;;;;;;70.07;38.10;;;;;;;;;;6314546;22;20007;-93
2023/01/22 08:33:35;;;;;;;78.70;44.20;;;;;;;;;;6313972;22;20011;-94
2023/01/22 08:36:01;;;;;;;63.28;33.22;;;;;;;;;;6313620;22;19999;-93
2023/01/22 08:38:27;;;;;;;59.17;32.90;;;;;;;;;;6313595;22;19995;-95
2023/01/22 08:40:53;;;;;;;45.28;26.38;;;;;;;;;;6314786;22;20035;-94
2023/01/22 08:43:19;;;;;;;46.72;27.35;;;;;;;;;;6286728;22;20025;-94
2023/01/22 08:45:48;;;;;;;47.75;27.50;;;;;;;;;;6313481;22;20011;-96
2023/01/22 08:48:14;;;;;;;60.13;31.88;;;;;;;;;;6286217;22;20056;-94
2023/01/22 08:50:40;;;;;;;64.80;35.33;;;;;;;;;;6286313;22;20362;-95
2023/01/22 08:53:06;;;;;;;59.53;32.75;;;;;;;;;;6313376;22;20003;-95
2023/01/22 08:55:32;;;;;;;59.35;33.55;;;;;;;;;;6286694;22;20034;-96
2023/01/22 08:57:58;;;;;;;69.57;36.38;;;;;;;;;;6313967;22;20003;-94
2023/01/22 09:00:25;;;;;;;56.78;31.55;;;;;;;;;;6313411;22;20015;-95
2023/01/22 09:02:51;;;;;;;57.83;31.17;;;;;;;;;;6286933;22;20007;-94
2023/01/22 09:05:17;;;;;;;56.50;30.25;;;;;;;;;;6286580;22;20026;-96
2023/01/22 09:07:43;;;;;;;60.80;32.67;;;;;;;;;;6313339;22;20007;-94
2023/01/22 09:10:11;;;;;;;68.20;36.58;;;;;;;;;;6285651;22;20003;-93
2023/01/22 09:12:38;;;;;;;81.75;40.53;;;;;;;;;;6313198;22;20258;-95
2023/01/22 09:15:04;;;;;;;73.88;39.28;;;;;;;;;;6286157;22;20216;-93
2023/01/22 09:17:30;;;;;;;64.15;34.17;;;;;;;;;;6312972;22;20026;-94
2023/01/22 09:19:56;;;;;;;71.55;37.55;;;;;;;;;;6286556;22;20030;-94
2023/01/22 09:22:23;;;;;;;70.72;38.35;;;;;;;;;;6287424;22;20074;-93
2023/01/22 09:24:49;;;;;;;250.40;75.95;;;;;;;;;;6313894;22;20000;-96
2023/01/22 09:27:15;;;;;;;113.75;51.88;;;;;;;;;;6286993;22;20007;-96
2023/01/22 09:29:41;;;;;;;56.08;31.85;;;;;;;;;;6286975;22;20013;-96
2023/01/22 09:32:08;;;;;;;49.42;28.80;;;;;;;;;;6313831;22;19999;-95
2023/01/22 09:34:34;;;;;;;45.85;26.85;;;;;;;;;;6314442;22;20000;-95
2023/01/22 09:37:04;;;;;;;46.72;26.13;;;;;;;;;;6314049;22;20007;-96
2023/01/22 09:39:30;;;;;;;53.70;29.65;;;;;;;;;;6286339;22;20038;-96
2023/01/22 09:41:59;;;;;;;61.78;33.78;;;;;;;;;;6315345;22;20014;-96
2023/01/22 09:44:33;;;;;;;41.97;25.88;;;;;;;;;;6317453;22;20011;-96
2023/01/22 09:47:03;;;;;;;48.67;28.42;;;;;;;;;;6288283;22;20007;-95
2023/01/22 09:49:31;;;;;;;52.78;31.45;;;;;;;;;;6288452;22;20275;-94
2023/01/22 09:51:58;;;;;;;49.55;30.77;;;;;;;;;;6288047;22;20008;-89
2023/01/22 09:54:24;;;;;;;48.05;28.70;;;;;;;;;;6313690;22;20351;-96
2023/01/22 09:56:52;;;;;;;42.72;26.05;;;;;;;;;;6313481;22;19999;-95
2023/01/22 10:02:44;;;;;;;40.95;25.90;;;;;;;;;;6265291;22;20036;-96
2023/01/22 10:05:50;;;;;;;43.88;26.98;;;;;;;;;;6263976;23;20008;-95
2023/01/22 10:08:18;;;;;;;58.97;33.45;;;;;;;;;;6120024;23;20053;-94
2023/01/22 10:10:44;;;;;;;53.45;31.23;;;;;;;;;;6108162;23;20013;-96
2023/01/22 10:13:15;;;;;;;43.13;26.48;;;;;;;;;;6130421;23;20350;-96
2023/01/22 10:15:41;;;;;;;47.08;27.63;;;;;;;;;;6105093;23;20170;-95
2023/01/22 10:18:14;;;;;;;46.83;28.17;;;;;;;;;;6129937;23;20010;-95
2023/01/22 10:20:43;;;;;;;76.80;43.45;;;;;;;;;;6130619;23;20028;-95
2023/01/22 10:23:16;;;;;;;137.15;68.45;;;;;;;;;;6106667;23;20372;-95
2023/01/22 10:25:42;;;;;;;73.20;39.85;;;;;;;;;;6129602;23;20358;-95
2023/01/22 10:28:09;;;;;;;156.52;69.25;;;;;;;;;;6104739;23;20030;-96
2023/01/22 10:30:44;;;;;;;69.38;38.75;;;;;;;;;;6106524;23;20036;-95
2023/01/22 10:33:16;;;;;;;100.07;51.15;;;;;;;;;;6104005;23;20094;-92
2023/01/22 10:35:49;;;;;;;89.57;46.67;;;;;;;;;;6138992;23;20103;-96
2023/01/22 10:38:24;;;;;;;69.88;38.20;;;;;;;;;;6135983;23;20033;-95
2023/01/22 10:40:55;;;;;;;74.60;38.63;;;;;;;;;;6134901;23;20005;-96
2023/01/22 10:43:24;;;;;;;66.15;36.83;;;;;;;;;;6249202;23;20004;-95
2023/01/22 10:46:00;;;;;;;79.13;41.78;;;;;;;;;;6226031;23;20004;-96
2023/01/22 10:48:27;;;;;;;70.03;38.00;;;;;;;;;;6251037;23;20102;-94
2023/01/22 10:51:07;;;;;;;68.45;39.70;;;;;;;;;;6251456;23;20016;-94
2023/01/22 10:53:35;;;;;;;114.38;53.78;;;;;;;;;;6251354;23;20023;-95
2023/01/22 10:56:03;;;;;;;74.32;40.35;;;;;;;;;;6227041;23;20087;-94
2023/01/22 10:58:33;;;;;;;60.92;35.70;;;;;;;;;;6231050;23;20030;-95
2023/01/22 11:03:48;;;;;;;90.18;44.25;;;;;;;;;;6303964;22;20084;-95
2023/01/22 11:06:26;;;;;;;73.53;40.05;;;;;;;;;;6288959;22;20007;-95
2023/01/22 11:08:56;;;;;;;48.60;27.85;;;;;;;;;;6315239;22;20057;-96
2023/01/22 11:11:34;;;;;;;58.85;28.63;;;;;;;;;;6292607;22;20011;-94
2023/01/22 11:14:05;;;;;;;54.45;33.95;;;;;;;;;;6292886;22;20023;-96
2023/01/22 11:16:37;;;;;;;53.30;31.88;;;;;;;;;;6299332;22;20358;-94
2023/01/22 11:19:06;;;;;;;46.08;28.23;;;;;;;;;;6320965;22;20003;-95
2023/01/22 11:21:34;;;;;;;58.85;32.92;;;;;;;;;;6315264;22;20094;-93
2023/01/22 11:24:18;;;;;;;61.47;34.97;;;;;;;;;;6317557;22;19999;-95
2023/01/22 11:26:58;;;;;;;49.47;28.98;;;;;;;;;;6288234;22;20056;-93
2023/01/22 11:29:30;;;;;;;57.00;34.08;;;;;;;;;;6316542;22;20063;-94
2023/01/22 11:32:15;;;;;;;65.55;36.65;;;;;;;;;;6286762;22;20259;-94
2023/01/22 11:34:42;;;;;;;56.63;35.13;;;;;;;;;;6287595;22;20003;-93
2023/01/22 11:37:31;;;;;;;52.70;32.13;;;;;;;;;;6315326;22;20015;-94
2023/01/22 11:40:15;;;;;;;49.97;30.67;;;;;;;;;;6161987;23;20268;-93
2023/01/22 11:42:59;;;;;;;101.57;50.15;;;;;;;;;;6162430;23;20125;-95
2023/01/22 11:45:28;;;;;;;66.80;40.72;;;;;;;;;;6139161;23;20045;-94
2023/01/22 11:47:54;;;;;;;51.47;30.55;;;;;;;;;;6162909;23;20006;-93
2023/01/22 11:50:29;;;;;;;51.30;29.38;;;;;;;;;;6161273;23;19997;-92
2023/01/22 11:53:18;;;;;;;48.92;27.60;;;;;;;;;;6136032;23;20112;-94
2023/01/22 11:56:02;;;;;;;50.40;30.08;;;;;;;;;;6142211;23;20005;-94
2023/01/22 11:58:52;;;;;;;65.18;36.00;;;;;;;;;;6171381;23;20024;-94
2023/01/22 12:01:36;;;;;;;52.47;31.48;;;;;;;;;;6113100;23;20010;-94
2023/01/22 12:04:11;;;;;;;49.80;31.00;;;;;;;;;;6076400;23;20023;-92
2023/01/22 12:06:56;;;;;;;47.10;28.85;;;;;;;;;;6072905;23;20026;-92
2023/01/22 12:09:28;;;;;;;54.95;29.95;;;;;;;;;;6073455;23;20082;-91
2023/01/22 12:11:54;;;;;;;;;;;;;;;;;;6073897;23;20019;-94
2023/01/22 12:14:28;;;;;;;50.28;27.75;;;;;;;;;;6074495;23;20034;-95
2023/01/22 12:17:05;;;;;;;;;;;;;;;;;;;;;
2023/01/22 12:19:44;;;;;;;38.40;23.73;;;;;;;;;;6172710;23;20281;-93
2023/01/22 12:25:36;;;;;;;36.55;22.58;;;;;;;;;;6077755;23;20018;-95
2023/01/22 12:31:27;;;;;;;35.67;23.30;;;;;;;;;;6041835;23;20031;-86
2023/01/22 12:34:15;;;;;;;43.65;27.40;;;;;;;;;;6042087;23;20055;-92
2023/01/22 12:36:44;;;;;;;39.42;23.83;;;;;;;;;;6018653;23;20000;-89
2023/01/22 12:46:23;;;;;;;41.47;26.23;;;;;;;;;;6100662;23;20010;-93
2023/01/22 12:49:15;;;;;;;45.10;28.95;;;;;;;;;;6100378;23;20006;-93
2023/01/22 12:52:18;;;;;;;45.90;30.90;;;;;;;;;;6100831;23;20422;-92
2023/01/22 12:58:16;;;;;;;55.35;35.47;;;;;;;;;;6100884;23;20030;-92
2023/01/22 13:00:45;;;;;;;52.50;32.13;;;;;;;;;;6014757;23;20087;-93
2023/01/22 13:03:23;;;;;;;45.45;29.17;;;;;;;;;;6075332;23;20046;-92
2023/01/22 13:05:49;;;;;;;44.28;28.80;;;;;;;;;;6101016;23;20270;-91
2023/01/22 13:08:37;;;;;;;44.88;29.75;;;;;;;;;;6088640;23;20009;-91
2023/01/22 13:11:05;;;;;;;45.85;30.50;;;;;;;;;;6129725;23;20010;-90
2023/01/22 13:13:38;;;;;;;46.33;30.42;;;;;;;;;;6128586;23;20030;-92
2023/01/22 13:16:06;;;;;;;47.53;29.17;;;;;;;;;;6129639;23;20085;-92
2023/01/22 13:18:43;;;;;;;68.10;41.92;;;;;;;;;;6129281;23;20123;-92
2023/01/22 13:21:14;;;;;;;43.13;27.60;;;;;;;;;;6129176;23;20009;-93
2023/01/22 13:27:16;;;;;;;46.45;29.42;;;;;;;;;;6129613;23;20040;-92
2023/01/22 13:29:44;;;;;;;43.90;27.20;;;;;;;;;;6129494;23;20010;-90
2023/01/22 13:32:18;;;;;;;41.35;26.60;;;;;;;;;;6128926;23;20010;-92
2023/01/22 13:34:44;;;;;;;43.70;28.95;;;;;;;;;;6129629;23;20006;-92
2023/01/22 13:37:23;;;;;;;48.15;30.60;;;;;;;;;;6178490;22;19996;-93
2023/01/22 13:40:27;;;;;;;66.95;38.10;;;;;;;;;;6282146;22;20075;-92
2023/01/22 13:42:54;;;;;;;51.47;32.28;;;;;;;;;;6255464;22;20011;-92
2023/01/22 13:45:27;;;;;;;47.92;32.13;;;;;;;;;;6254975;22;20080;-92
2023/01/22 13:48:09;;;;;;;50.35;31.95;;;;;;;;;;6282039;22;20472;-93
2023/01/22 13:50:37;;;;;;;54.60;33.80;;;;;;;;;;6255054;22;20015;-92
2023/01/22 13:53:03;;;;;;;54.35;34.22;;;;;;;;;;6254913;22;20004;-92
2023/01/22 13:55:29;;;;;;;68.38;36.40;;;;;;;;;;6255511;22;20004;-92
2023/01/22 13:57:57;;;;;;;43.63;27.98;;;;;;;;;;6254803;22;20004;-93
2023/01/22 14:00:23;;;;;;;45.05;27.15;;;;;;;;;;6281924;22;20023;-92
2023/01/22 14:02:50;;;;;;;51.70;29.35;;;;;;;;;;6268400;22;20243;-92
2023/01/22 14:05:17;;;;;;;55.00;32.13;;;;;;;;;;6312607;22;20011;-91
2023/01/22 14:07:43;;;;;;;57.05;31.05;;;;;;;;;;6285525;22;20002;-91
2023/01/22 14:16:19;;;;;;;43.95;28.00;;;;;;;;;;6314408;22;20292;-92
2023/01/22 14:18:45;;;;;;;43.13;27.30;;;;;;;;;;6314607;22;20362;-92
2023/01/22 14:21:11;;;;;;;45.78;26.05;;;;;;;;;;6287556;22;20007;-93
2023/01/22 14:23:38;;;;;;;37.60;23.88;;;;;;;;;;6288148;22;20362;-93
2023/01/22 14:26:06;;;;;;;42.20;26.38;;;;;;;;;;6314108;22;20010;-93
2023/01/22 14:28:33;;;;;;;45.22;28.20;;;;;;;;;;6314103;22;19999;-91
2023/01/22 14:30:59;;;;;;;49.97;31.20;;;;;;;;;;6314728;22;20034;-91
2023/01/22 14:33:32;;;;;;;48.45;31.30;;;;;;;;;;6287529;22;20013;-92
2023/01/22 14:35:58;;;;;;;50.63;32.03;;;;;;;;;;6287767;22;20362;-92
2023/01/22 14:39:02;;;;;;;64.85;43.92;;;;;;;;;;6314414;22;20255;-93
2023/01/22 14:41:28;;;;;;;53.10;33.42;;;;;;;;;;6314516;22;20377;-92
2023/01/22 14:43:54;;;;;;;46.38;30.15;;;;;;;;;;6287476;22;20035;-92
2023/01/22 14:46:23;;;;;;;63.10;36.30;;;;;;;;;;6287857;22;20014;-93
2023/01/22 14:48:49;;;;;;;68.57;40.25;;;;;;;;;;6287273;22;20007;-92
2023/01/22 14:51:15;;;;;;;59.33;33.53;;;;;;;;;;6314311;22;20003;-93
2023/01/22 14:53:41;;;;;;;52.10;32.40;;;;;;;;;;6287364;22;20434;-91
2023/01/22 14:56:08;;;;;;;57.75;33.72;;;;;;;;;;6287246;22;20000;-91
2023/01/22 14:58:35;;;;;;;47.95;29.35;;;;;;;;;;6314238;22;19999;-92
2023/01/22 15:01:01;;;;;;;50.67;32.83;;;;;;;;;;6314458;22;20007;-93
2023/01/22 15:03:30;;;;;;;62.70;38.03;;;;;;;;;;6313845;22;20011;-92
2023/01/22 15:05:56;;;;;;;51.42;34.05;;;;;;;;;;6287492;22;20014;-93
2023/01/22 15:08:22;;;;;;;49.50;31.58;;;;;;;;;;6316031;22;20029;-93
2023/01/22 15:11:08;;;;;;;;;;;;;;;;;;;;;
2023/01/22 15:13:55;;;;;;;61.40;37.85;;;;;;;;;;6235538;22;20078;-94
2023/01/22 15:19:57;;;;;;;52.20;30.90;;;;;;;;;;6221390;23;20014;-93
2023/01/22 15:22:39;;;;;;;45.15;27.98;;;;;;;;;;6221496;23;20012;-93
2023/01/22 15:28:17;;;;;;;79.15;37.40;;;;;;;;;;6219591;23;20052;-92
2023/01/22 15:30:56;;;;;;;;;;;;;;;;;;;;;
2023/01/22 15:33:41;;;;;;;60.80;32.97;;;;;;;;;;6120637;23;20084;-93
2023/01/22 15:36:29;;;;;;;59.13;35.40;;;;;;;;;;6219618;23;20048;-93
2023/01/22 15:39:32;;;;;;;53.30;30.75;;;;;;;;;;6193945;23;20004;-94
2023/01/22 15:41:58;;;;;;;;;;;;;;;;;;6219891;23;20446;-93
2023/01/22 15:44:24;;;;;;;60.47;35.85;;;;;;;;;;6219864;23;19900;-93
2023/01/22 15:46:51;;;;;;;48.05;29.02;;;;;;;;;;6219796;23;20059;-93
2023/01/22 15:49:20;;;;;;;68.55;38.63;;;;;;;;;;6219769;23;20406;-93
2023/01/22 15:51:54;;;;;;;62.75;34.67;;;;;;;;;;6193931;23;20012;-93